Time;durP1;ratioP1;P1;durP2;ratioP2;P2;SDS_P1;SDS_P2;PMS_P1;PMS_P2;Temp;Humidity;BMP_temperature;BMP_pressure;BME280_temperature;BME280_humidity;BME280_pressure;Samples;Min_cycle;Max_cycle;Signal;HPM_P1;HPM_P2
2023/03/20 00:01:23;;;;;;;4.57;2.65;;;8.00;99.90;;;;;;5055779;28;20397;-66
2023/03/20 00:03:50;;;;;;;4.82;2.60;;;8.10;99.90;;;;;;5056361;28;20053;-66
2023/03/20 00:06:17;;;;;;;4.95;2.47;;;8.20;99.90;;;;;;5037246;28;20049;-66
2023/03/20 00:08:45;;;;;;;4.88;2.42;;;8.20;99.90;;;;;;5038102;28;20084;-66
2023/03/20 00:11:25;;;;;;;4.45;2.53;;;8.40;99.90;;;;;;5040128;28;20410;-66
2023/03/20 00:14:11;;;;;;;5.57;2.28;;;8.20;99.90;;;;;;5055852;28;20048;-66
2023/03/20 00:16:40;;;;;;;5.40;2.75;;;8.30;99.90;;;;;;5055212;28;20047;-66
2023/03/20 00:19:12;;;;;;;6.13;2.53;;;8.20;99.90;;;;;;5054732;28;20040;-66
2023/03/20 00:21:38;;;;;;;4.63;2.70;;;8.40;99.90;;;;;;5055199;28;20114;-66
2023/03/20 00:24:04;;;;;;;4.30;2.15;;;8.20;99.90;;;;;;5037283;28;20045;-66
2023/03/20 00:26:34;;;;;;;4.50;2.33;;;8.30;99.90;;;;;;5054812;28;20095;-66
2023/03/20 00:29:01;;;;;;;5.25;2.95;;;8.30;99.90;;;;;;5054877;28;20045;-67
2023/03/20 00:31:36;;;;;;;5.32;3.00;;;8.20;99.90;;;;;;5054930;28;20053;-66
2023/03/20 00:34:05;;;;;;;5.10;2.40;;;8.20;99.90;;;;;;5054762;28;20044;-66
2023/03/20 00:36:31;;;;;;;6.70;3.00;;;8.30;99.90;;;;;;5054586;28;20102;-65
2023/03/20 00:38:57;;;;;;;4.28;2.35;;;8.30;99.90;;;;;;5038773;28;20112;-66
2023/03/20 00:41:28;;;;;;;3.92;2.33;;;8.10;99.90;;;;;;5060340;28;20132;-67
2023/03/20 00:44:00;;;;;;;4.85;2.65;;;8.10;99.90;;;;;;5057118;28;20041;-66
2023/03/20 00:46:26;;;;;;;6.38;2.47;;;8.20;99.90;;;;;;5054611;28;20092;-66
2023/03/20 00:48:53;;;;;;;8.00;3.03;;;7.90;99.90;;;;;;5055362;28;20037;-65
2023/03/20 00:51:19;;;;;;;9.18;2.90;;;7.90;99.90;;;;;;5055175;28;20377;-66
2023/03/20 00:53:45;;;;;;;5.65;3.38;;;8.30;99.90;;;;;;5054142;28;20076;-66
2023/03/20 00:56:31;;;;;;;6.07;3.42;;;8.00;99.90;;;;;;5054860;28;20091;-66
2023/03/20 00:58:59;;;;;;;5.65;2.92;;;8.00;99.90;;;;;;5055064;28;20044;-66
2023/03/20 01:01:25;;;;;;;6.88;3.60;;;8.00;99.90;;;;;;5036405;28;20072;-66
2023/03/20 01:03:50;;;;;;;7.70;3.50;;;8.20;99.90;;;;;;5054141;28;20041;-66
2023/03/20 01:06:17;;;;;;;5.28;3.10;;;7.90;99.90;;;;;;5054106;28;20174;-66
2023/03/20 01:08:44;;;;;;;6.97;2.63;;;8.00;99.90;;;;;;5054100;28;20060;-66
2023/03/20 01:11:12;;;;;;;8.07;2.88;;;8.00;99.90;;;;;;5053795;28;20500;-66
2023/03/20 01:13:39;;;;;;;6.03;2.63;;;8.00;99.90;;;;;;5054228;28;20102;-66
2023/03/20 01:16:13;;;;;;;5.90;2.85;;;8.10;99.90;;;;;;5053993;28;20044;-66
2023/03/20 01:18:39;;;;;;;6.30;3.10;;;8.00;99.90;;;;;;5054488;28;20053;-66
2023/03/20 01:21:05;;;;;;;8.15;3.30;;;7.90;99.90;;;;;;5036275;28;20052;-66
2023/03/20 01:23:31;;;;;;;6.90;3.15;;;7.90;99.90;;;;;;5053825;28;20095;-66
2023/03/20 01:25:57;;;;;;;7.10;3.20;;;7.80;99.90;;;;;;5054854;28;20037;-66
2023/03/20 01:28:23;;;;;;;8.25;3.50;;;8.00;99.90;;;;;;5053675;28;20056;-66
2023/03/20 01:30:50;;;;;;;6.72;3.40;;;8.20;99.90;;;;;;5053650;28;20051;-66
2023/03/20 01:33:18;;;;;;;5.32;2.83;;;8.00;99.90;;;;;;5053666;28;20067;-65
2023/03/20 01:35:45;;;;;;;6.13;2.78;;;8.00;99.90;;;;;;5036005;28;20132;-66
2023/03/20 01:38:23;;;;;;;4.70;2.90;;;8.00;99.90;;;;;;5053867;28;20370;-66
2023/03/20 01:41:00;;;;;;;4.95;2.55;;;8.10;99.90;;;;;;5053544;28;20049;-66
2023/03/20 01:43:27;;;;;;;5.13;2.30;;;8.00;99.90;;;;;;5053623;28;20056;-66
2023/03/20 01:46:09;;;;;;;8.02;2.67;;;7.70;99.90;;;;;;5053617;28;20048;-66
2023/03/20 01:48:56;;;;;;;8.43;3.20;;;7.70;99.90;;;;;;5053389;28;20051;-66
2023/03/20 01:51:24;;;;;;;5.20;2.38;;;8.20;99.90;;;;;;5054106;28;20076;-66
2023/03/20 01:54:02;;;;;;;5.60;2.08;;;8.00;99.90;;;;;;5054273;28;20130;-66
2023/03/20 01:56:35;;;;;;;3.03;2.08;;;8.00;99.90;;;;;;5053465;28;20043;-66
2023/03/20 01:59:05;;;;;;;3.70;2.20;;;7.80;99.90;;;;;;5053487;28;20128;-66
2023/03/20 02:01:34;;;;;;;5.30;2.60;;;7.80;99.90;;;;;;5054164;28;20068;-66
2023/03/20 02:04:01;;;;;;;5.82;2.50;;;7.80;99.90;;;;;;5053421;28;20053;-66
2023/03/20 02:06:28;;;;;;;5.88;2.10;;;7.80;99.90;;;;;;5053235;28;20072;-66
2023/03/20 02:08:54;;;;;;;5.28;2.50;;;7.90;99.90;;;;;;5053323;28;20045;-66
2023/03/20 02:11:22;;;;;;;5.28;2.15;;;7.70;99.90;;;;;;5035765;28;20048;-66
2023/03/20 02:13:55;;;;;;;5.40;2.10;;;7.80;99.90;;;;;;5035534;28;20124;-65
2023/03/20 02:16:21;;;;;;;4.30;2.45;;;7.90;99.90;;;;;;5053228;28;20041;-65
2023/03/20 02:18:50;;;;;;;5.05;2.38;;;7.80;99.90;;;;;;5036459;28;20049;-66
2023/03/20 02:21:57;;;;;;;4.43;2.42;;;8.00;99.90;;;;;;5035653;28;20443;-66
2023/03/20 02:24:48;;;;;;;4.85;2.40;;;7.70;99.90;;;;;;4991749;28;20057;-66
2023/03/20 02:27:35;;;;;;;4.72;2.83;;;7.90;99.90;;;;;;5050450;28;20085;-66
2023/03/20 02:30:10;;;;;;;4.68;2.33;;;8.00;99.90;;;;;;5053589;28;20119;-66
2023/03/20 02:33:13;;;;;;;5.75;3.10;;;8.00;99.90;;;;;;5035526;28;20045;-66
2023/03/20 02:36:03;;;;;;;6.68;2.88;;;8.00;99.90;;;;;;5053566;28;20041;-66
2023/03/20 02:38:51;;;;;;;9.80;3.20;;;7.90;99.90;;;;;;5053617;28;20393;-66
2023/03/20 02:41:34;;;;;;;9.23;3.22;;;8.00;99.90;;;;;;5053028;28;20497;-66
2023/03/20 02:44:31;;;;;;;12.15;4.22;;;8.00;99.90;;;;;;5035565;28;20164;-66
2023/03/20 02:47:17;;;;;;;8.32;3.50;;;8.00;99.90;;;;;;5053188;28;20045;-66
2023/03/20 02:49:53;;;;;;;7.43;3.47;;;8.00;99.90;;;;;;5052975;28;20103;-66
2023/03/20 02:52:24;;;;;;;8.23;3.92;;;8.00;99.90;;;;;;5053475;28;20085;-66
2023/03/20 02:55:05;;;;;;;9.02;3.47;;;8.30;99.90;;;;;;5052898;28;20086;-66
2023/03/20 02:58:09;;;;;;;9.15;3.80;;;8.20;99.90;;;;;;5053674;28;20052;-66
2023/03/20 03:00:38;;;;;;;;;;;8.10;99.90;;;;;;4978963;28;20089;-66
2023/03/20 03:03:33;;;;;;;8.40;3.20;;;8.00;99.90;;;;;;5045637;28;19927;-66
2023/03/20 03:06:05;;;;;;;8.48;3.65;;;8.00;99.90;;;;;;5032584;28;20413;-66
2023/03/20 03:08:41;;;;;;;9.02;3.40;;;8.10;99.90;;;;;;5039645;28;20048;-66
2023/03/20 03:11:08;;;;;;;7.43;3.58;;;8.20;99.90;;;;;;5038962;28;20081;-66
2023/03/20 03:13:46;;;;;;;6.28;3.83;;;8.20;99.90;;;;;;5039463;28;20457;-66
2023/03/20 03:16:20;;;;;;;11.02;4.18;;;8.20;99.90;;;;;;5056813;28;20048;-66
2023/03/20 03:18:47;;;;;;;8.23;4.00;;;8.10;99.90;;;;;;5056200;28;20045;-66
2023/03/20 03:21:16;;;;;;;7.60;4.03;;;8.30;99.90;;;;;;5038531;28;20432;-66
2023/03/20 03:23:47;;;;;;;6.55;3.58;;;8.50;99.90;;;;;;5038769;28;20114;-66
2023/03/20 03:26:37;;;;;;;7.43;3.50;;;8.40;99.90;;;;;;5039172;28;20456;-66
2023/03/20 03:29:11;;;;;;;8.95;3.35;;;8.30;99.90;;;;;;5056554;28;20370;-65
2023/03/20 03:31:37;;;;;;;8.85;3.35;;;8.50;99.90;;;;;;5056460;28;20052;-65
2023/03/20 03:34:03;;;;;;;8.40;3.90;;;8.30;99.90;;;;;;5055851;28;20052;-66
2023/03/20 03:36:38;;;;;;;7.93;3.92;;;8.20;99.90;;;;;;5038232;28;20049;-66
2023/03/20 03:39:14;;;;;;;9.45;4.18;;;8.20;99.90;;;;;;5056487;28;20049;-66
2023/03/20 03:41:56;;;;;;;9.02;4.28;;;8.00;99.90;;;;;;5055688;28;20041;-66
2023/03/20 03:44:33;;;;;;;9.45;4.20;;;8.20;99.90;;;;;;5056024;28;20049;-67
2023/03/20 03:47:11;;;;;;;13.55;4.85;;;8.20;99.90;;;;;;5056495;28;20072;-67
2023/03/20 03:49:43;;;;;;;11.60;5.35;;;8.40;99.90;;;;;;5055639;28;20068;-67
2023/03/20 03:52:14;;;;;;;9.25;5.00;;;8.20;99.90;;;;;;5056150;28;20044;-66
2023/03/20 03:54:47;;;;;;;11.90;5.43;;;8.50;99.90;;;;;;5055627;28;20389;-65
2023/03/20 03:57:15;;;;;;;;;;;8.20;99.90;;;;;;5038933;28;20052;-66
2023/03/20 03:59:44;;;;;;;9.63;4.93;;;8.20;99.90;;;;;;5056041;28;19920;-66
2023/03/20 04:02:11;;;;;;;12.65;5.85;;;8.10;99.90;;;;;;5055200;28;20512;-66
2023/03/20 04:04:43;;;;;;;10.55;5.03;;;8.20;99.90;;;;;;5037744;28;20056;-66
2023/03/20 04:07:09;;;;;;;11.20;5.10;;;8.10;99.90;;;;;;5055805;28;20346;-66
2023/03/20 04:09:35;;;;;;;13.80;6.28;;;8.20;99.90;;;;;;5037587;28;20128;-66
2023/03/20 04:12:00;;;;;;;12.05;5.65;;;8.30;99.90;;;;;;5056016;28;20203;-66
2023/03/20 04:14:26;;;;;;;11.85;6.18;;;8.30;99.90;;;;;;5038029;28;20456;-66
2023/03/20 04:16:52;;;;;;;10.68;6.00;;;8.30;99.90;;;;;;5037808;28;20052;-66
2023/03/20 04:19:17;;;;;;;14.52;6.18;;;8.40;99.90;;;;;;5055050;28;20045;-66
2023/03/20 04:21:44;;;;;;;13.65;6.75;;;8.50;99.90;;;;;;5055289;28;20094;-66
2023/03/20 04:24:10;;;;;;;12.40;5.78;;;8.40;99.90;;;;;;5038103;28;20068;-67
2023/03/20 04:26:36;;;;;;;12.43;6.07;;;8.50;99.90;;;;;;5055428;28;20045;-66
2023/03/20 04:29:03;;;;;;;11.13;6.07;;;8.40;99.90;;;;;;5055140;28;20116;-66
2023/03/20 04:31:29;;;;;;;13.15;6.13;;;8.30;99.90;;;;;;5054548;28;20500;-67
2023/03/20 04:33:55;;;;;;;13.57;6.32;;;8.20;99.90;;;;;;5055299;28;20045;-66
2023/03/20 04:36:21;;;;;;;13.05;6.18;;;8.10;99.90;;;;;;5054741;28;20438;-66
2023/03/20 04:38:46;;;;;;;13.60;5.80;;;8.20;99.90;;;;;;5054619;28;20124;-65
2023/03/20 04:41:12;;;;;;;12.02;5.45;;;8.40;99.90;;;;;;5054618;28;20049;-66
2023/03/20 04:43:39;;;;;;;11.45;5.35;;;8.20;99.90;;;;;;5037050;28;20128;-67
2023/03/20 04:46:05;;;;;;;11.82;5.20;;;8.20;99.90;;;;;;5054488;28;20452;-66
2023/03/20 04:48:31;;;;;;;12.20;5.82;;;8.10;99.90;;;;;;5037812;28;20072;-66
2023/03/20 04:50:56;;;;;;;13.77;5.57;;;8.50;99.90;;;;;;5054550;28;20040;-67
2023/03/20 04:53:22;;;;;;;12.30;5.90;;;8.40;99.90;;;;;;5054458;28;20087;-66
2023/03/20 04:55:49;;;;;;;12.43;5.65;;;8.20;99.90;;;;;;5054533;28;20037;-67
2023/03/20 04:58:15;;;;;;;10.48;5.15;;;8.40;99.90;;;;;;5054685;28;20111;-66
2023/03/20 05:00:42;;;;;;;10.98;5.65;;;8.20;99.90;;;;;;5054206;28;20045;-66
2023/03/20 05:03:08;;;;;;;11.00;5.13;;;8.30;99.90;;;;;;5054677;28;20175;-66
2023/03/20 05:05:36;;;;;;;12.80;6.00;;;8.20;99.90;;;;;;5054506;28;20099;-66
2023/03/20 05:08:04;;;;;;;10.43;4.93;;;8.30;99.90;;;;;;5037450;28;20055;-66
2023/03/20 05:10:30;;;;;;;12.43;5.78;;;8.20;99.90;;;;;;5054699;28;20051;-66
2023/03/20 05:12:56;;;;;;;13.93;5.65;;;8.40;99.90;;;;;;5054982;28;20373;-66
2023/03/20 05:15:21;;;;;;;13.32;5.10;;;8.10;99.90;;;;;;5053808;28;20037;-67
2023/03/20 05:17:48;;;;;;;15.45;5.25;;;8.20;99.90;;;;;;5036159;28;20040;-66
2023/03/20 05:20:14;;;;;;;9.75;5.28;;;8.20;99.90;;;;;;5054081;28;20071;-67
2023/03/20 05:22:40;;;;;;;10.30;4.82;;;8.30;99.90;;;;;;5053917;28;20052;-66
2023/03/20 05:25:06;;;;;;;11.40;5.05;;;8.30;99.90;;;;;;5036435;28;20155;-66
2023/03/20 05:27:32;;;;;;;8.35;4.60;;;8.30;99.90;;;;;;5036042;28;20204;-66
2023/03/20 05:29:58;;;;;;;8.20;4.55;;;8.20;99.90;;;;;;5054192;28;20037;-67
2023/03/20 05:32:24;;;;;;;10.20;4.53;;;8.50;99.90;;;;;;5037201;28;20135;-66
2023/03/20 05:34:50;;;;;;;10.27;4.78;;;8.20;99.90;;;;;;5053902;28;20091;-66
2023/03/20 05:37:15;;;;;;;8.00;4.70;;;8.30;99.90;;;;;;5035986;28;20072;-66
2023/03/20 05:39:41;;;;;;;7.97;4.43;;;8.40;99.90;;;;;;5054219;28;20047;-66
2023/03/20 05:42:07;;;;;;;7.72;4.30;;;8.30;99.90;;;;;;5053968;28;20136;-66
2023/03/20 05:44:32;;;;;;;6.72;3.75;;;8.20;99.90;;;;;;5054180;28;20091;-67
2023/03/20 05:46:58;;;;;;;8.43;3.97;;;8.10;99.90;;;;;;5036296;28;20041;-66
2023/03/20 05:49:24;;;;;;;7.38;3.50;;;8.20;99.90;;;;;;5054746;28;20469;-67
2023/03/20 05:51:49;;;;;;;8.30;4.70;;;8.30;99.90;;;;;;5056909;28;20045;-65
2023/03/20 05:54:15;;;;;;;6.88;3.67;;;8.20;99.90;;;;;;5024073;28;20045;-67
2023/03/20 05:56:41;;;;;;;8.43;4.22;;;8.20;99.90;;;;;;5056240;28;20041;-67
2023/03/20 05:59:07;;;;;;;7.70;4.20;;;8.30;99.90;;;;;;5053780;28;20041;-67
2023/03/20 06:01:32;;;;;;;8.82;4.18;;;8.20;99.90;;;;;;5053176;28;20075;-66
2023/03/20 06:03:58;;;;;;;7.95;3.65;;;8.40;99.90;;;;;;5053561;28;20123;-66
2023/03/20 06:06:24;;;;;;;9.32;4.20;;;8.00;99.90;;;;;;5053270;28;20616;-66
2023/03/20 06:08:50;;;;;;;7.97;4.15;;;8.30;99.90;;;;;;5036053;28;20045;-66
2023/03/20 06:11:15;;;;;;;8.77;3.85;;;8.10;99.90;;;;;;5036270;28;20540;-66
2023/03/20 06:13:41;;;;;;;7.85;3.60;;;8.20;99.90;;;;;;5053830;28;20106;-66
2023/03/20 06:16:07;;;;;;;6.25;4.10;;;8.20;99.90;;;;;;5035481;28;20124;-66
2023/03/20 06:18:33;;;;;;;9.23;3.78;;;8.30;99.90;;;;;;5036177;28;20442;-67
2023/03/20 06:20:59;;;;;;;9.00;4.28;;;8.20;99.90;;;;;;5053194;28;20045;-66
2023/03/20 06:23:24;;;;;;;6.95;3.92;;;8.30;99.90;;;;;;5053188;28;20076;-66
2023/03/20 06:25:50;;;;;;;9.27;3.80;;;8.30;99.90;;;;;;5035703;28;20385;-66
2023/03/20 06:28:16;;;;;;;9.95;3.80;;;8.20;99.90;;;;;;5036568;28;20049;-66
2023/03/20 06:30:43;;;;;;;9.98;4.18;;;8.10;99.90;;;;;;5055576;28;20044;-66
2023/03/20 06:33:09;;;;;;;6.47;3.90;;;8.20;99.90;;;;;;5058957;28;20090;-66
2023/03/20 06:35:35;;;;;;;8.38;4.22;;;8.10;99.90;;;;;;5059877;28;20049;-66
2023/03/20 06:38:01;;;;;;;9.05;4.28;;;8.30;99.90;;;;;;5057869;28;20534;-66
2023/03/20 06:40:27;;;;;;;7.97;4.93;;;8.40;99.90;;;;;;5057133;28;20385;-66
2023/03/20 06:42:53;;;;;;;8.30;4.20;;;8.30;99.90;;;;;;5057408;28;20053;-66
2023/03/20 06:45:20;;;;;;;9.70;4.07;;;8.50;99.90;;;;;;5039599;28;20354;-66
2023/03/20 06:47:46;;;;;;;8.73;4.15;;;8.30;99.90;;;;;;5056745;28;20103;-66
2023/03/20 06:50:12;;;;;;;10.52;4.32;;;8.30;99.90;;;;;;5057522;28;20053;-65
2023/03/20 06:52:38;;;;;;;8.27;4.10;;;8.30;99.90;;;;;;5056329;28;20537;-66
2023/03/20 06:55:05;;;;;;;10.70;4.35;;;8.30;99.90;;;;;;5039263;28;20135;-66
2023/03/20 06:57:31;;;;;;;8.15;4.53;;;8.20;99.90;;;;;;5056542;28;20481;-66
2023/03/20 06:59:57;;;;;;;10.98;4.60;;;8.30;99.90;;;;;;5057120;28;20135;-68
2023/03/20 07:02:24;;;;;;;10.02;4.47;;;8.20;99.90;;;;;;5035167;28;20478;-66
2023/03/20 07:04:49;;;;;;;8.05;4.30;;;8.30;99.90;;;;;;5036570;28;20505;-66
2023/03/20 07:07:16;;;;;;;10.02;4.70;;;8.30;99.90;;;;;;5036451;28;20042;-67
2023/03/20 07:09:42;;;;;;;9.55;4.55;;;8.30;99.90;;;;;;5036499;28;20045;-66
2023/03/20 07:12:18;;;;;;;10.48;4.13;;;8.50;99.90;;;;;;5036644;28;20050;-66
2023/03/20 07:14:44;;;;;;;9.98;4.50;;;8.30;99.90;;;;;;5036327;28;20067;-66
2023/03/20 07:17:11;;;;;;;9.73;4.55;;;8.30;99.90;;;;;;5037019;28;20080;-66
2023/03/20 07:19:37;;;;;;;9.77;4.32;;;8.40;99.90;;;;;;5035952;28;20516;-66
2023/03/20 07:22:06;;;;;;;9.48;5.13;;;8.40;99.90;;;;;;5036081;28;20132;-66
2023/03/20 07:24:33;;;;;;;11.27;4.82;;;8.40;99.90;;;;;;5036139;28;20042;-66
2023/03/20 07:26:59;;;;;;;9.70;5.07;;;8.40;99.90;;;;;;5036047;28;20049;-66
2023/03/20 07:29:25;;;;;;;10.20;4.32;;;8.40;99.90;;;;;;5035115;28;20099;-66
2023/03/20 07:31:51;;;;;;;8.65;4.55;;;8.50;99.90;;;;;;5036250;28;20045;-66
2023/03/20 07:34:17;;;;;;;9.90;4.70;;;8.40;99.90;;;;;;5036645;28;20532;-66
2023/03/20 07:36:43;;;;;;;9.65;4.28;;;8.50;99.90;;;;;;5035033;28;20112;-66
2023/03/20 07:39:09;;;;;;;9.30;4.90;;;8.40;99.90;;;;;;5036047;28;20053;-66
2023/03/20 07:41:35;;;;;;;8.75;4.50;;;8.50;99.90;;;;;;5035923;28;20127;-67
2023/03/20 07:44:01;;;;;;;8.20;3.63;;;8.50;99.90;;;;;;5035058;28;20085;-66
2023/03/20 07:46:27;;;;;;;9.27;5.05;;;8.60;99.90;;;;;;5035482;28;20049;-67
2023/03/20 07:48:53;;;;;;;10.13;4.60;;;8.50;99.90;;;;;;5035508;28;20049;-66
2023/03/20 07:51:18;;;;;;;9.45;4.70;;;8.80;99.90;;;;;;5036263;28;20057;-66
2023/03/20 07:53:44;;;;;;;8.73;4.72;;;8.60;99.90;;;;;;5034704;28;20050;-66
2023/03/20 07:56:10;;;;;;;8.77;4.38;;;8.60;99.90;;;;;;5035436;28;20056;-66
2023/03/20 07:58:35;;;;;;;9.30;4.90;;;8.80;99.90;;;;;;5035789;28;20073;-66
2023/03/20 08:01:02;;;;;;;9.93;4.93;;;8.70;99.90;;;;;;5037317;28;20389;-67
2023/03/20 08:03:28;;;;;;;10.38;5.18;;;8.70;99.90;;;;;;5055487;28;20469;-67
2023/03/20 08:05:54;;;;;;;8.77;5.18;;;8.70;99.90;;;;;;5021234;28;20051;-66
2023/03/20 08:08:20;;;;;;;9.48;4.82;;;8.70;99.90;;;;;;5055405;28;20040;-67
2023/03/20 08:10:46;;;;;;;12.00;5.20;;;8.90;99.90;;;;;;5055318;28;20049;-66
2023/03/20 08:13:12;;;;;;;11.20;5.45;;;8.70;99.90;;;;;;5037650;28;20041;-67
2023/03/20 08:15:37;;;;;;;11.35;5.68;;;8.70;99.90;;;;;;5055352;28;20440;-66
2023/03/20 08:18:03;;;;;;;9.98;4.53;;;8.80;99.90;;;;;;5055298;28;20051;-67
2023/03/20 08:20:30;;;;;;;11.88;4.80;;;8.80;99.90;;;;;;5055169;28;20040;-67
2023/03/20 08:22:56;;;;;;;9.68;4.95;;;8.80;99.90;;;;;;5037593;28;20400;-66
2023/03/20 08:25:22;;;;;;;10.13;5.20;;;8.90;99.90;;;;;;5038248;28;20106;-67
2023/03/20 08:27:48;;;;;;;9.30;5.65;;;8.90;99.90;;;;;;5055893;28;20037;-67
2023/03/20 08:30:14;;;;;;;10.52;5.68;;;8.90;99.90;;;;;;5054899;28;20084;-67
2023/03/20 08:32:40;;;;;;;10.85;5.32;;;9.00;99.90;;;;;;5054925;28;20128;-67
2023/03/20 08:35:07;;;;;;;13.38;5.30;;;9.00;99.90;;;;;;5037295;28;20144;-66
2023/03/20 08:37:34;;;;;;;11.98;5.55;;;9.10;99.90;;;;;;5054820;28;20135;-66
2023/03/20 08:40:00;;;;;;;11.88;5.35;;;9.00;99.90;;;;;;5054916;28;20482;-66
2023/03/20 08:42:26;;;;;;;11.20;5.63;;;9.00;99.90;;;;;;5037158;28;20090;-67
2023/03/20 08:44:51;;;;;;;10.10;5.45;;;9.10;99.90;;;;;;5054682;28;20097;-66
2023/03/20 08:47:18;;;;;;;11.35;6.00;;;9.00;99.90;;;;;;5054622;28;20052;-66
2023/03/20 08:49:44;;;;;;;12.85;6.80;;;9.00;99.90;;;;;;5055148;28;20049;-67
2023/03/20 08:52:10;;;;;;;10.48;5.97;;;9.10;99.90;;;;;;5054640;28;20106;-67
2023/03/20 08:54:36;;;;;;;13.98;5.95;;;9.10;99.90;;;;;;5036931;28;20102;-66
2023/03/20 08:57:01;;;;;;;9.73;6.03;;;9.10;99.90;;;;;;5054669;28;20041;-66
2023/03/20 08:59:27;;;;;;;12.10;5.70;;;9.20;99.90;;;;;;5054425;28;20132;-68
2023/03/20 09:01:53;;;;;;;11.80;6.45;;;9.20;99.90;;;;;;5054111;28;20139;-69
2023/03/20 09:04:19;;;;;;;10.80;5.28;;;9.20;99.90;;;;;;5054407;28;20136;-67
2023/03/20 09:06:45;;;;;;;10.95;5.95;;;9.20;99.90;;;;;;5036216;28;20049;-67
2023/03/20 09:09:14;;;;;;;12.98;6.15;;;9.20;99.90;;;;;;5037016;28;20048;-69
2023/03/20 09:11:40;;;;;;;12.95;5.35;;;9.40;99.90;;;;;;5054242;28;20051;-68
2023/03/20 09:14:06;;;;;;;9.95;5.10;;;9.40;99.90;;;;;;5054926;28;20045;-68
2023/03/20 09:16:32;;;;;;;12.95;5.57;;;9.60;99.90;;;;;;5054123;28;20389;-69
2023/03/20 09:18:57;;;;;;;8.82;5.63;;;9.40;99.90;;;;;;5036548;28;20052;-68
2023/03/20 09:21:23;;;;;;;10.93;5.90;;;9.40;99.90;;;;;;5054061;28;20362;-69
2023/03/20 09:23:49;;;;;;;11.63;5.55;;;9.70;99.90;;;;;;5054095;28;20088;-68
2023/03/20 09:26:15;;;;;;;11.05;5.60;;;9.50;99.90;;;;;;5037056;28;20045;-68
2023/03/20 09:28:40;;;;;;;9.50;5.07;;;9.50;99.90;;;;;;5053924;28;20107;-68
2023/03/20 09:31:06;;;;;;;11.00;5.78;;;9.50;99.90;;;;;;5054283;28;20045;-69
2023/03/20 09:33:32;;;;;;;9.48;5.68;;;9.60;99.90;;;;;;5053875;28;20048;-69
2023/03/20 09:35:58;;;;;;;11.68;5.68;;;9.50;99.90;;;;;;5053808;28;20080;-69
2023/03/20 09:38:23;;;;;;;11.00;5.35;;;9.80;99.90;;;;;;5054326;28;20048;-67
2023/03/20 09:40:51;;;;;;;11.38;4.95;;;9.90;99.90;;;;;;5054041;28;20053;-68
2023/03/20 09:43:46;;;;;;;12.30;5.65;;;10.10;99.90;;;;;;5036116;28;20053;-67
2023/03/20 09:46:30;;;;;;;10.88;4.93;;;10.00;99.90;;;;;;5020215;28;20250;-67
2023/03/20 09:49:05;;;;;;;10.18;5.47;;;10.10;99.90;;;;;;5053305;28;20125;-67
2023/03/20 09:51:40;;;;;;;10.35;5.25;;;10.10;99.90;;;;;;5053723;28;20087;-67
2023/03/20 09:54:32;;;;;;;11.13;5.10;;;10.20;99.90;;;;;;5053571;28;20052;-67
2023/03/20 09:56:59;;;;;;;11.15;5.10;;;10.20;99.90;;;;;;5053547;28;20044;-67
2023/03/20 09:59:26;;;;;;;10.55;5.47;;;10.10;99.90;;;;;;5053538;28;20049;-67
2023/03/20 10:01:54;;;;;;;8.95;5.00;;;10.10;99.90;;;;;;5035365;28;20061;-67
2023/03/20 10:04:25;;;;;;;10.40;4.75;;;10.10;99.90;;;;;;5053413;28;20049;-67
2023/03/20 10:06:52;;;;;;;9.07;4.28;;;10.30;99.90;;;;;;5054266;28;20048;-67
2023/03/20 10:09:23;;;;;;;10.57;4.85;;;10.20;99.90;;;;;;5056636;28;20442;-66
2023/03/20 10:11:52;;;;;;;10.20;4.78;;;10.30;99.90;;;;;;5057163;28;20056;-67
2023/03/20 10:14:23;;;;;;;9.45;3.97;;;10.40;99.90;;;;;;5057847;28;20135;-66
2023/03/20 10:16:51;;;;;;;8.75;4.03;;;10.40;99.90;;;;;;5040577;28;20132;-67
2023/03/20 10:19:26;;;;;;;7.90;4.10;;;10.40;99.90;;;;;;5057213;28;20080;-67
2023/03/20 10:22:16;;;;;;;10.82;3.78;;;10.50;99.90;;;;;;5057645;28;20435;-67
2023/03/20 10:24:50;;;;;;;8.52;4.50;;;10.50;99.90;;;;;;5057209;28;20056;-67
2023/03/20 10:27:33;;;;;;;9.10;4.05;;;10.60;99.90;;;;;;5057846;28;20479;-67
2023/03/20 10:30:25;;;;;;;8.00;3.83;;;10.70;99.90;;;;;;5057800;28;20376;-67
2023/03/20 10:33:09;;;;;;;7.00;4.03;;;10.90;99.90;;;;;;5054900;28;20065;-67
2023/03/20 10:35:42;;;;;;;7.28;3.65;;;10.60;99.90;;;;;;5057255;28;20377;-66
2023/03/20 10:38:25;;;;;;;8.52;4.43;;;10.70;99.90;;;;;;5039597;28;20550;-67
2023/03/20 10:40:54;;;;;;;8.73;4.22;;;10.60;99.90;;;;;;5039654;28;20060;-66
2023/03/20 10:43:23;;;;;;;10.45;4.95;;;10.60;99.90;;;;;;5056753;28;20438;-67
2023/03/20 10:46:04;;;;;;;9.52;4.80;;;10.50;99.90;;;;;;5039114;28;20452;-67
2023/03/20 10:48:43;;;;;;;9.13;4.57;;;10.60;99.90;;;;;;5057296;28;20124;-67
2023/03/20 10:51:15;;;;;;;9.93;4.55;;;10.60;99.90;;;;;;5056822;28;20049;-67
2023/03/20 10:53:49;;;;;;;10.68;5.20;;;10.70;99.90;;;;;;5056717;28;20049;-67
2023/03/20 10:56:39;;;;;;;7.18;4.47;;;10.60;99.90;;;;;;5056754;28;20045;-67
2023/03/20 10:59:19;;;;;;;13.55;4.95;;;10.70;99.90;;;;;;5056662;28;20041;-66
2023/03/20 11:01:45;;;;;;;8.10;4.28;;;10.60;99.90;;;;;;5057030;28;20465;-67
2023/03/20 11:04:11;;;;;;;8.65;4.68;;;10.60;99.90;;;;;;5056381;28;20059;-67
2023/03/20 11:07:06;;;;;;;9.30;5.18;;;10.60;99.90;;;;;;5057039;28;20084;-67
2023/03/20 11:09:32;;;;;;;11.02;5.53;;;10.60;99.90;;;;;;5057357;28;20054;-67
2023/03/20 11:12:00;;;;;;;9.75;5.75;;;10.60;99.90;;;;;;5039747;28;20420;-67
2023/03/20 11:14:33;;;;;;;12.20;6.18;;;10.60;99.90;;;;;;5056630;28;20044;-67
2023/03/20 11:17:02;;;;;;;10.20;6.75;;;10.60;99.90;;;;;;5044445;28;20068;-66
2023/03/20 11:19:36;;;;;;;12.10;6.88;;;10.50;99.90;;;;;;5061063;28;20041;-67
2023/03/20 11:22:24;;;;;;;13.25;7.15;;;10.50;99.90;;;;;;5039616;28;20041;-67
2023/03/20 11:25:22;;;;;;;11.90;7.07;;;10.50;99.90;;;;;;5056184;28;20041;-67
2023/03/20 11:27:48;;;;;;;10.93;7.43;;;10.30;99.90;;;;;;5056073;28;20045;-67
2023/03/20 11:30:17;;;;;;;12.05;6.82;;;10.30;99.90;;;;;;5038456;28;20045;-68
2023/03/20 11:32:49;;;;;;;10.07;7.07;;;10.30;99.90;;;;;;5038295;28;20045;-67
2023/03/20 11:35:26;;;;;;;8.32;6.70;;;10.20;99.90;;;;;;5038048;28;20049;-68
2023/03/20 11:37:54;;;;;;;11.50;6.70;;;10.20;99.90;;;;;;5056810;28;20067;-67
2023/03/20 11:40:24;;;;;;;8.55;6.57;;;10.10;99.90;;;;;;5056684;28;20385;-67
2023/03/20 11:43:02;;;;;;;9.10;6.60;;;10.20;99.90;;;;;;5055848;28;20416;-67
2023/03/20 11:45:40;;;;;;;8.82;7.18;;;10.20;99.90;;;;;;5038954;28;20384;-67
2023/03/20 11:48:13;;;;;;;9.70;6.80;;;10.20;99.90;;;;;;5038487;28;20052;-67
2023/03/20 11:51:09;;;;;;;12.18;6.30;;;10.20;99.90;;;;;;5056233;28;20503;-67
2023/03/20 11:54:01;;;;;;;10.57;6.57;;;10.20;99.90;;;;;;5052556;28;20060;-67
2023/03/20 11:56:32;;;;;;;12.20;6.90;;;10.30;99.90;;;;;;5059743;28;20052;-67
2023/03/20 11:59:21;;;;;;;11.23;7.15;;;10.30;99.90;;;;;;5059286;28;20037;-67
2023/03/20 12:01:52;;;;;;;13.40;7.65;;;10.30;99.90;;;;;;5038760;28;20106;-67
2023/03/20 12:04:24;;;;;;;8.15;6.25;;;10.50;99.90;;;;;;5055448;28;20076;-67
2023/03/20 12:07:11;;;;;;;9.80;6.45;;;10.20;99.90;;;;;;5022701;28;20389;-66
2023/03/20 12:09:48;;;;;;;8.88;6.45;;;10.10;99.90;;;;;;5055559;28;20041;-69
2023/03/20 12:12:32;;;;;;;11.07;6.97;;;10.20;99.90;;;;;;5037677;28;20041;-68
2023/03/20 12:15:14;;;;;;;9.93;5.97;;;10.20;99.90;;;;;;5038398;28;20131;-67
2023/03/20 12:18:22;;;;;;;12.23;5.22;;;10.10;99.90;;;;;;5037902;28;20447;-67
2023/03/20 12:20:59;;;;;;;7.72;5.57;;;10.20;99.90;;;;;;4993407;28;20056;-67
2023/03/20 12:23:38;;;;;;;8.90;5.25;;;10.00;99.90;;;;;;5047289;28;20057;-68
2023/03/20 12:26:06;;;;;;;8.50;5.10;;;10.00;99.90;;;;;;5054951;28;20392;-68
2023/03/20 12:28:45;;;;;;;8.68;4.65;;;9.80;99.90;;;;;;5055537;28;20045;-67
2023/03/20 12:32:01;;;;;;;7.45;4.20;;;9.70;99.90;;;;;;5054753;28;20372;-68
2023/03/20 12:34:37;;;;;;;6.07;4.07;;;9.70;99.90;;;;;;5041703;28;20060;-68
2023/03/20 12:37:03;;;;;;;6.35;3.38;;;9.60;99.90;;;;;;5055169;28;20068;-68
2023/03/20 12:39:40;;;;;;;5.38;3.65;;;9.60;99.90;;;;;;5020650;28;20481;-67
2023/03/20 12:42:33;;;;;;;7.85;3.58;;;8.30;99.90;;;;;;5055337;28;20052;-67
2023/03/20 12:45:11;;;;;;;6.65;4.22;;;9.60;99.90;;;;;;5054952;28;20095;-67
2023/03/20 12:47:45;;;;;;;7.05;4.13;;;9.60;99.90;;;;;;5036897;28;20098;-68
2023/03/20 12:50:32;;;;;;;9.63;5.10;;;9.70;99.90;;;;;;5054807;28;20068;-68
2023/03/20 12:53:44;;;;;;;7.70;4.85;;;9.70;99.90;;;;;;5054504;28;20378;-68
2023/03/20 12:56:28;;;;;;;6.70;4.82;;;9.60;99.90;;;;;;5054166;28;20044;-68
2023/03/20 12:59:05;;;;;;;6.57;4.05;;;9.70;99.90;;;;;;5036855;28;20047;-67
2023/03/20 13:01:47;;;;;;;6.28;4.03;;;9.70;99.90;;;;;;5054417;28;20057;-67
2023/03/20 13:04:40;;;;;;;5.53;3.95;;;9.70;99.90;;;;;;5054270;28;20064;-68
2023/03/20 13:07:32;;;;;;;8.73;4.45;;;9.50;99.90;;;;;;5054661;28;20045;-68
2023/03/20 13:10:13;;;;;;;9.15;4.38;;;9.50;99.90;;;;;;5036529;28;20107;-67
2023/03/20 13:12:44;;;;;;;8.25;5.15;;;9.70;99.90;;;;;;5054678;28;20053;-68
2023/03/20 13:16:01;;;;;;;7.28;4.35;;;9.50;99.90;;;;;;5054024;28;20477;-67